Terminal Aerodrome Forecast
Issued by NWS Chicago, IL

Home | Current Version | Previous Version | Graphics & Text | Print | Product List | Glossary On
Versions: 1 2 3 4 5 6 7 8 9 10 11 12 13 14 15 16 17 18 19 20 21 22 23 24 25 26 27 28 29 30 31 32
000
FTUS43 KLOT 301722
TAFRFD
TAF
KRFD 301722Z 3018/3118 VRB03KT P6SM SCT015 BKN025
     FM302100 VRB03KT P6SM SCT025
     FM310300 00000KT 3SM BR SKC
      TEMPO 3110/3113 00000KT 1 1/2SM BR
     FM311300 20004KT P6SM SKC=

USA.gov is the U.S. government's official web portal to all federal, state and local government web resources and services.